createdAt,value
2019-02-21T00:01:22.195Z,79.50
2019-02-21T00:03:48.051Z,80.10
2019-02-21T00:06:13.981Z,78.83
2019-02-21T00:08:40.206Z,78.30
2019-02-21T00:11:06.132Z,80.47
2019-02-21T00:13:32.109Z,77.70
2019-02-21T00:15:57.956Z,80.10
2019-02-21T00:18:23.792Z,79.03
2019-02-21T00:20:49.636Z,79.23
2019-02-21T00:23:15.490Z,78.00
2019-02-21T00:25:41.455Z,76.07
2019-02-21T00:28:07.402Z,76.00
2019-02-21T00:30:35.501Z,78.17
2019-02-21T00:33:01.110Z,75.60
2019-02-21T00:35:27.006Z,75.77
2019-02-21T00:37:53.013Z,76.20
2019-02-21T00:40:18.940Z,74.93
2019-02-21T00:42:44.811Z,77.67
2019-02-21T00:45:10.949Z,79.97
2019-02-21T00:47:36.786Z,75.73
2019-02-21T00:50:03.536Z,78.50
2019-02-21T00:52:31.412Z,79.83
2019-02-21T00:54:57.243Z,77.70
2019-02-21T00:57:23.068Z,82.87
2019-02-21T00:59:50.871Z,81.10
2019-02-21T01:02:17.003Z,79.03
2019-02-21T01:04:42.935Z,79.47
2019-02-21T01:07:08.938Z,79.43
2019-02-21T01:09:34.796Z,75.67
2019-02-21T01:12:00.647Z,72.93
2019-02-21T01:14:26.525Z,75.13
2019-02-21T01:16:52.353Z,75.57
2019-02-21T01:19:18.168Z,74.27
2019-02-21T01:21:44.167Z,76.20
2019-02-21T01:24:10.118Z,80.23
2019-02-21T01:26:35.967Z,79.40
2019-02-21T01:29:01.839Z,78.20
2019-02-21T01:31:27.780Z,78.17
2019-02-21T01:33:53.760Z,76.07
2019-02-21T01:36:19.810Z,77.87
2019-02-21T01:38:45.667Z,76.80
2019-02-21T01:41:11.598Z,79.80
2019-02-21T01:43:37.561Z,76.13
2019-02-21T01:46:03.526Z,77.97
2019-02-21T01:48:29.710Z,75.73
2019-02-21T01:50:55.709Z,73.43
2019-02-21T01:53:21.706Z,73.83
2019-02-21T01:55:47.651Z,77.67
2019-02-21T01:58:13.486Z,72.57
2019-02-21T02:00:39.492Z,71.23
2019-02-21T02:03:05.617Z,71.53
2019-02-21T02:05:31.548Z,70.87
2019-02-21T02:07:57.634Z,69.83
2019-02-21T02:10:23.721Z,68.30
2019-02-21T02:12:49.645Z,71.60
2019-02-21T02:15:15.713Z,67.07
2019-02-21T02:17:41.573Z,67.93
2019-02-21T02:20:07.723Z,70.53
2019-02-21T02:22:33.672Z,69.97
2019-02-21T02:24:59.512Z,68.10
2019-02-21T02:27:25.443Z,71.70
2019-02-21T02:29:51.281Z,71.97
2019-02-21T02:32:17.241Z,72.67
2019-02-21T02:34:43.326Z,75.27
2019-02-21T02:37:09.172Z,70.80
2019-02-21T02:39:35.005Z,70.40
2019-02-21T02:42:00.929Z,68.53
2019-02-21T02:44:26.789Z,71.70
2019-02-21T02:46:52.672Z,71.63
2019-02-21T02:49:18.519Z,71.00
2019-02-21T02:51:44.334Z,70.27
2019-02-21T02:54:10.354Z,70.83
2019-02-21T02:56:36.295Z,70.57
2019-02-21T02:59:02.241Z,65.27
2019-02-21T03:01:34.883Z,62.33
2019-02-21T03:03:56.414Z,63.83
2019-02-21T03:06:22.277Z,63.57
2019-02-21T03:08:48.146Z,65.17
2019-02-21T03:11:14.091Z,67.07
2019-02-21T03:13:40.032Z,68.93
2019-02-21T03:16:06.080Z,70.83
2019-02-21T03:18:31.971Z,72.03
2019-02-21T03:20:57.935Z,77.17
2019-02-21T03:23:23.826Z,75.43
2019-02-21T03:25:49.651Z,72.83
2019-02-21T03:28:15.590Z,70.87
2019-02-21T03:30:41.559Z,70.70
2019-02-21T03:33:07.492Z,67.40
2019-02-21T03:35:33.349Z,69.73
2019-02-21T03:37:59.240Z,64.33
2019-02-21T03:40:25.169Z,66.77
2019-02-21T03:42:51.000Z,67.13
2019-02-21T03:45:17.184Z,68.73
2019-02-21T03:47:43.137Z,66.17
2019-02-21T03:50:10.076Z,69.63
2019-02-21T03:52:36.071Z,69.40
2019-02-21T03:55:02.539Z,73.03
2019-02-21T03:57:28.382Z,72.67
2019-02-21T03:59:54.474Z,69.40
2019-02-21T04:02:20.468Z,71.87
2019-02-21T04:04:50.293Z,69.77
2019-02-21T04:07:16.297Z,67.50
2019-02-21T04:09:42.338Z,64.57
2019-02-21T04:12:08.221Z,67.63
2019-02-21T04:14:34.187Z,67.73
2019-02-21T04:17:00.043Z,65.83
2019-02-21T04:19:25.890Z,69.60
2019-02-21T04:21:51.948Z,65.73
2019-02-21T04:24:18.017Z,64.13
2019-02-21T04:26:43.963Z,65.17
2019-02-21T04:29:09.833Z,64.63
2019-02-21T04:31:35.874Z,65.60
2019-02-21T04:34:01.768Z,62.30
2019-02-21T04:36:27.634Z,64.87
2019-02-21T04:38:53.498Z,68.07
2019-02-21T04:41:19.574Z,67.33
2019-02-21T04:43:45.430Z,68.53
2019-02-21T04:46:11.235Z,65.47
2019-02-21T04:48:37.215Z,66.13
2019-02-21T04:51:03.156Z,64.73
2019-02-21T04:53:29.051Z,61.40
2019-02-21T04:55:54.896Z,60.07
2019-02-21T04:58:20.754Z,61.63
2019-02-21T05:00:46.732Z,61.20
2019-02-21T05:03:12.565Z,61.03
2019-02-21T05:05:38.476Z,61.37
2019-02-21T05:08:04.417Z,63.23
2019-02-21T05:10:30.290Z,65.23
2019-02-21T05:12:56.172Z,66.43
2019-02-21T05:15:22.043Z,63.07
2019-02-21T05:17:47.978Z,62.07
2019-02-21T05:20:13.823Z,59.17
2019-02-21T05:22:39.687Z,60.03
2019-02-21T05:25:05.868Z,60.47
2019-02-21T05:27:33.257Z,62.80
2019-02-21T05:29:59.208Z,62.63
2019-02-21T05:32:27.037Z,69.40
2019-02-21T05:35:13.135Z,68.90
2019-02-21T05:37:56.216Z,67.13
2019-02-21T05:40:32.992Z,67.60
2019-02-21T05:43:09.850Z,67.80
2019-02-21T05:45:40.601Z,65.13
2019-02-21T05:48:14.285Z,64.47
2019-02-21T05:50:58.726Z,66.33
2019-02-21T05:53:35.299Z,63.87
2019-02-21T05:56:18.172Z,62.53
2019-02-21T05:58:54.931Z,60.30
2019-02-21T06:01:35.096Z,62.70
2019-02-21T06:04:02.963Z,62.73
2019-02-21T06:06:31.040Z,60.77
2019-02-21T06:08:58.828Z,58.97
2019-02-21T06:11:26.572Z,59.00
2019-02-21T06:13:57.605Z,58.80
2019-02-21T06:16:25.350Z,57.80
2019-02-21T06:18:53.133Z,57.30
2019-02-21T06:21:26.760Z,58.87
2019-02-21T06:23:54.589Z,55.73
2019-02-21T06:26:28.337Z,57.57
2019-02-21T06:28:56.212Z,56.93
2019-02-21T06:31:22.105Z,58.40
2019-02-21T06:33:49.497Z,57.90
2019-02-21T06:36:15.571Z,58.47
2019-02-21T06:38:41.500Z,63.90
2019-02-21T06:41:07.371Z,64.97
2019-02-21T06:43:33.270Z,61.23
2019-02-21T06:45:59.117Z,62.00
2019-02-21T06:48:25.184Z,60.27
2019-02-21T06:50:51.092Z,63.17
2019-02-21T06:53:16.956Z,65.23
2019-02-21T06:55:45.510Z,60.13
2019-02-21T06:58:11.520Z,56.57
2019-02-21T07:00:37.454Z,57.47
2019-02-21T07:03:03.353Z,58.20
2019-02-21T07:05:29.510Z,56.23
2019-02-21T07:07:58.877Z,52.03
2019-02-21T07:10:24.855Z,51.53
2019-02-21T07:12:50.916Z,51.03
2019-02-21T07:15:16.931Z,49.80
2019-02-21T07:17:49.409Z,48.63
2019-02-21T07:20:12.920Z,49.10
2019-02-21T07:22:38.521Z,47.93
2019-02-21T07:25:06.850Z,48.83
2019-02-21T07:27:32.662Z,49.10
2019-02-21T07:29:58.593Z,46.83
2019-02-21T07:32:24.488Z,44.30
2019-02-21T07:34:50.305Z,44.73
2019-02-21T07:37:19.013Z,44.03
2019-02-21T07:39:44.126Z,43.33
2019-02-21T07:42:10.058Z,46.13
2019-02-21T07:44:35.896Z,44.67
2019-02-21T07:47:01.769Z,46.50
2019-02-21T07:49:27.713Z,45.87
2019-02-21T07:51:53.625Z,44.97
2019-02-21T07:54:19.447Z,45.93
2019-02-21T07:56:45.493Z,44.47
2019-02-21T07:59:12.273Z,46.90
2019-02-21T08:01:38.650Z,45.97
2019-02-21T08:04:04.608Z,42.67
2019-02-21T08:06:30.513Z,42.03
2019-02-21T08:08:56.421Z,42.60
2019-02-21T08:11:22.439Z,42.00
2019-02-21T08:13:48.452Z,41.83
2019-02-21T08:16:14.502Z,41.90
2019-02-21T08:18:40.366Z,42.17
2019-02-21T08:21:06.219Z,41.00
2019-02-21T08:23:32.570Z,41.23
2019-02-21T08:25:58.791Z,42.30
2019-02-21T08:28:24.616Z,41.23
2019-02-21T08:30:50.443Z,41.63
2019-02-21T08:33:24.018Z,41.57
2019-02-21T08:35:49.860Z,40.57
2019-02-21T08:38:15.917Z,41.23
2019-02-21T08:40:41.789Z,42.37
2019-02-21T08:43:07.626Z,41.43
2019-02-21T08:45:33.738Z,42.37
2019-02-21T08:47:59.601Z,39.70
2019-02-21T08:50:25.554Z,41.03
2019-02-21T08:52:51.520Z,41.03
2019-02-21T08:55:17.552Z,41.53
2019-02-21T08:57:43.530Z,41.37
2019-02-21T09:00:11.988Z,40.67
2019-02-21T09:02:38.025Z,54.20
2019-02-21T09:05:05.702Z,66.37
2019-02-21T09:07:31.584Z,66.33
2019-02-21T09:09:57.612Z,64.53
2019-02-21T09:12:23.567Z,70.50
2019-02-21T09:14:49.605Z,69.57
2019-02-21T09:17:15.529Z,72.63
2019-02-21T09:19:41.482Z,70.23
2019-02-21T09:22:07.478Z,71.97
2019-02-21T09:24:40.018Z,74.97
2019-02-21T09:27:01.270Z,73.03
2019-02-21T09:29:27.267Z,64.93
2019-02-21T09:31:53.122Z,52.77
2019-02-21T09:34:21.510Z,51.50
2019-02-21T09:36:46.887Z,53.13
2019-02-21T09:39:12.724Z,51.63
2019-02-21T09:41:38.770Z,54.30
2019-02-21T09:44:04.887Z,55.90
2019-02-21T09:46:30.828Z,56.33
2019-02-21T09:48:56.906Z,55.00
2019-02-21T09:51:22.747Z,51.30
2019-02-21T09:53:48.688Z,52.03
2019-02-21T09:56:14.640Z,50.67
2019-02-21T09:58:40.485Z,51.87
2019-02-21T10:01:06.405Z,51.40
2019-02-21T10:03:32.229Z,50.93
2019-02-21T10:05:58.054Z,54.23
2019-02-21T10:08:24.073Z,54.23
2019-02-21T10:10:50.025Z,55.53
2019-02-21T10:13:15.890Z,54.77
2019-02-21T10:15:41.755Z,54.37
2019-02-21T10:18:07.582Z,51.83
2019-02-21T10:20:33.535Z,49.67
2019-02-21T10:22:59.628Z,48.97
2019-02-21T10:25:27.274Z,50.73
2019-02-21T10:27:53.226Z,49.97
2019-02-21T10:30:21.054Z,49.20
2019-02-21T10:32:47.104Z,48.40
2019-02-21T10:35:13.199Z,48.03
2019-02-21T10:37:39.164Z,47.90
2019-02-21T10:40:08.088Z,51.70
2019-02-21T10:42:34.183Z,52.67
2019-02-21T10:45:00.036Z,52.33
2019-02-21T10:47:26.070Z,52.80
2019-02-21T10:49:52.154Z,52.27
2019-02-21T10:52:18.084Z,50.97
2019-02-21T10:54:44.059Z,50.33
2019-02-21T10:57:10.002Z,52.60
2019-02-21T10:59:46.299Z,54.13
2019-02-21T11:02:03.828Z,56.17
2019-02-21T11:04:29.771Z,58.63
2019-02-21T11:06:55.668Z,57.90
2019-02-21T11:09:21.682Z,58.27
2019-02-21T11:11:47.696Z,58.57
2019-02-21T11:14:13.596Z,56.90
2019-02-21T11:16:39.451Z,55.47
2019-02-21T11:19:05.406Z,55.67
2019-02-21T11:21:31.661Z,57.63
2019-02-21T11:23:57.523Z,57.40
2019-02-21T11:26:23.598Z,58.37
2019-02-21T11:28:49.562Z,57.43
2019-02-21T11:31:15.490Z,57.63
2019-02-21T11:33:41.551Z,56.07
2019-02-21T11:36:07.580Z,58.07
2019-02-21T11:38:33.555Z,54.27
2019-02-21T11:40:59.505Z,55.57
2019-02-21T11:43:25.563Z,57.97
2019-02-21T11:45:56.364Z,56.63
2019-02-21T11:48:19.482Z,58.13
2019-02-21T11:50:45.313Z,57.40
2019-02-21T11:53:11.230Z,56.73
2019-02-21T11:55:37.047Z,57.13
2019-02-21T11:58:02.877Z,57.50
2019-02-21T12:00:29.456Z,59.17
2019-02-21T12:02:55.419Z,60.20
2019-02-21T12:05:30.564Z,65.17
2019-02-21T12:07:50.046Z,62.60
2019-02-21T12:10:16.102Z,63.80
2019-02-21T12:12:42.091Z,66.17
2019-02-21T12:15:10.119Z,64.67
2019-02-21T12:17:36.054Z,66.47
2019-02-21T12:20:04.128Z,63.97
2019-02-21T12:22:30.164Z,65.43
2019-02-21T12:24:55.999Z,64.00
2019-02-21T12:27:21.994Z,65.87
2019-02-21T12:29:47.823Z,64.07
2019-02-21T12:32:13.916Z,65.97
2019-02-21T12:34:39.840Z,65.60
2019-02-21T12:37:05.794Z,67.27
2019-02-21T12:39:31.667Z,69.80
2019-02-21T12:41:57.504Z,70.07
2019-02-21T12:44:23.450Z,71.40
2019-02-21T12:46:49.316Z,67.73
2019-02-21T12:49:15.150Z,67.07
2019-02-21T12:51:41.005Z,65.47
2019-02-21T12:54:06.888Z,63.97
2019-02-21T12:56:32.838Z,59.37
2019-02-21T12:58:58.785Z,56.63
2019-02-21T13:01:24.699Z,61.33
2019-02-21T13:03:50.653Z,62.93
2019-02-21T13:06:16.603Z,65.10
2019-02-21T13:08:42.485Z,62.30
2019-02-21T13:11:08.314Z,60.70
2019-02-21T13:13:34.385Z,64.42
2019-02-21T13:16:00.367Z,62.03
2019-02-21T13:18:26.345Z,60.92
2019-02-21T13:20:52.355Z,61.80
2019-02-21T13:23:18.287Z,62.03
2019-02-21T13:25:44.130Z,63.33
2019-02-21T13:28:10.033Z,65.83
2019-02-21T13:30:35.897Z,63.35
2019-02-21T13:33:01.825Z,62.08
2019-02-21T13:35:29.371Z,61.08
2019-02-21T13:37:55.383Z,63.28
2019-02-21T13:40:21.559Z,64.58
2019-02-21T13:42:47.405Z,60.90
2019-02-21T13:45:17.264Z,59.83
2019-02-21T13:47:42.261Z,64.65
2019-02-21T13:50:15.493Z,64.60
2019-02-21T13:52:41.423Z,62.13
2019-02-21T13:55:07.985Z,64.30
2019-02-21T13:57:33.871Z,65.25
2019-02-21T13:59:59.915Z,65.75
2019-02-21T14:02:25.901Z,66.33
2019-02-21T14:04:51.718Z,66.00
2019-02-21T14:07:17.544Z,67.08
2019-02-21T14:09:43.433Z,70.35
2019-02-21T14:12:09.298Z,70.35
2019-02-21T14:14:35.150Z,72.92
2019-02-21T14:17:05.104Z,71.50
2019-02-21T14:19:30.930Z,72.70
2019-02-21T14:21:56.993Z,70.08
2019-02-21T14:24:22.875Z,74.00
2019-02-21T14:26:48.730Z,74.20
2019-02-21T14:29:14.668Z,72.20
2019-02-21T14:31:40.620Z,74.15
2019-02-21T14:34:06.668Z,70.10
2019-02-21T14:36:32.666Z,71.47
2019-02-21T14:38:58.549Z,71.75
2019-02-21T14:41:24.381Z,71.92
2019-02-21T14:43:50.515Z,72.67
2019-02-21T14:46:16.377Z,77.75
2019-02-21T14:48:42.252Z,74.62
2019-02-21T14:51:08.232Z,74.37
2019-02-21T14:53:34.095Z,75.70
2019-02-21T14:56:00.069Z,71.70
2019-02-21T14:58:26.013Z,73.65
2019-02-21T15:00:51.881Z,71.28
2019-02-21T15:03:21.904Z,69.37
2019-02-21T15:05:45.727Z,70.35
2019-02-21T15:08:11.594Z,70.50
2019-02-21T15:10:37.442Z,69.75
2019-02-21T15:13:03.365Z,71.00
2019-02-21T15:15:29.460Z,69.85
2019-02-21T15:18:06.573Z,70.37
2019-02-21T15:20:23.382Z,70.80
2019-02-21T15:22:49.287Z,70.00
2019-02-21T15:25:15.236Z,70.53
2019-02-21T15:27:41.254Z,72.80
2019-02-21T15:30:10.712Z,70.67
2019-02-21T15:32:37.777Z,72.23
2019-02-21T15:35:04.238Z,73.30
2019-02-21T15:37:30.189Z,71.53
2019-02-21T15:39:56.013Z,73.47
2019-02-21T15:42:22.000Z,75.33
2019-02-21T15:44:47.859Z,73.13
2019-02-21T15:47:13.688Z,73.23
2019-02-21T15:49:39.564Z,73.60
2019-02-21T15:52:05.598Z,73.93
2019-02-21T15:54:31.473Z,71.90
2019-02-21T15:56:57.342Z,75.00
2019-02-21T15:59:23.191Z,75.33
2019-02-21T16:01:49.385Z,72.03
2019-02-21T16:04:15.352Z,73.20
2019-02-21T16:06:51.142Z,70.47
2019-02-21T16:09:16.226Z,72.30
2019-02-21T16:11:36.862Z,72.33
2019-02-21T16:14:03.714Z,71.80
2019-02-21T16:16:29.874Z,73.10
2019-02-21T16:18:59.189Z,73.00
2019-02-21T16:21:25.256Z,74.37
2019-02-21T16:23:51.258Z,73.30
2019-02-21T16:26:17.315Z,73.20
2019-02-21T16:28:43.287Z,74.17
2019-02-21T16:31:09.120Z,73.80
2019-02-21T16:33:35.019Z,75.80
2019-02-21T16:36:01.190Z,75.60
2019-02-21T16:38:27.132Z,73.50
2019-02-21T16:40:53.031Z,75.53
2019-02-21T16:43:19.806Z,73.63
2019-02-21T16:45:47.152Z,69.50
2019-02-21T16:48:13.525Z,69.83
2019-02-21T16:50:39.339Z,72.03
2019-02-21T16:53:05.194Z,68.80
2019-02-21T16:55:31.367Z,70.80
2019-02-21T16:57:57.352Z,71.07
2019-02-21T17:00:23.831Z,71.27
2019-02-21T17:02:49.969Z,70.47
2019-02-21T17:05:15.805Z,71.07
2019-02-21T17:07:41.891Z,72.23
2019-02-21T17:10:10.723Z,70.87
2019-02-21T17:12:37.176Z,71.50
2019-02-21T17:15:05.643Z,70.83
2019-02-21T17:17:31.522Z,71.83
2019-02-21T17:19:57.455Z,70.00
2019-02-21T17:22:23.409Z,72.33
2019-02-21T17:24:49.280Z,69.53
2019-02-21T17:27:15.166Z,72.13
2019-02-21T17:29:41.054Z,74.90
2019-02-21T17:32:06.891Z,73.57
2019-02-21T17:34:32.721Z,73.10
2019-02-21T17:36:58.584Z,73.03
2019-02-21T17:39:24.547Z,74.97
2019-02-21T17:41:50.902Z,73.77
2019-02-21T17:44:16.735Z,74.27
2019-02-21T17:46:42.710Z,74.87
2019-02-21T17:49:08.544Z,74.93
2019-02-21T17:51:34.493Z,72.43
2019-02-21T17:54:00.556Z,76.20
2019-02-21T17:56:26.485Z,75.60
2019-02-21T17:58:52.442Z,74.13
2019-02-21T18:01:18.297Z,76.33
2019-02-21T18:03:44.325Z,76.57
2019-02-21T18:06:10.247Z,75.80
2019-02-21T18:08:36.074Z,75.43
2019-02-21T18:11:02.045Z,74.93
2019-02-21T18:13:28.371Z,78.47
2019-02-21T18:15:54.404Z,75.37
2019-02-21T18:18:20.368Z,77.00
2019-02-21T18:20:46.381Z,77.57
2019-02-21T18:23:12.547Z,77.63
2019-02-21T18:25:47.803Z,76.90
2019-02-21T18:28:13.762Z,73.10
2019-02-21T18:30:39.681Z,74.93
2019-02-21T18:33:05.782Z,75.60
2019-02-21T18:35:31.857Z,76.60
2019-02-21T18:37:57.769Z,82.20
2019-02-21T18:40:25.002Z,80.23
2019-02-21T18:42:51.051Z,79.70
2019-02-21T18:45:16.990Z,80.73
2019-02-21T18:47:43.129Z,80.90
2019-02-21T18:50:10.770Z,82.60
2019-02-21T18:52:36.706Z,82.60
2019-02-21T18:55:04.279Z,82.93
2019-02-21T18:57:30.281Z,82.23
2019-02-21T18:59:56.199Z,84.07
2019-02-21T19:02:22.134Z,81.93
2019-02-21T19:04:48.064Z,80.77
2019-02-21T19:07:14.063Z,80.00
2019-02-21T19:09:39.894Z,84.73
2019-02-21T19:12:05.993Z,83.90
2019-02-21T19:14:31.835Z,83.70
2019-02-21T19:16:57.766Z,83.03
2019-02-21T19:19:23.765Z,80.40
2019-02-21T19:21:49.868Z,80.93
2019-02-21T19:24:17.733Z,80.00
2019-02-21T19:26:43.624Z,78.87
2019-02-21T19:29:09.564Z,78.03
2019-02-21T19:31:35.522Z,72.43
2019-02-21T19:34:01.699Z,76.87
2019-02-21T19:36:27.545Z,77.27
2019-02-21T19:38:53.489Z,77.00
2019-02-21T19:41:19.514Z,80.20
2019-02-21T19:43:45.531Z,78.07
2019-02-21T19:46:11.585Z,76.20
2019-02-21T19:48:37.586Z,77.93
2019-02-21T19:51:03.823Z,80.03
2019-02-21T19:53:29.898Z,77.00
2019-02-21T19:55:55.908Z,76.33
2019-02-21T19:58:21.743Z,77.07
2019-02-21T20:00:48.101Z,75.57
2019-02-21T20:03:14.043Z,78.87
2019-02-21T20:05:40.086Z,75.50
2019-02-21T20:08:08.969Z,75.37
2019-02-21T20:10:33.930Z,73.93
2019-02-21T20:13:01.761Z,75.63
2019-02-21T20:15:27.710Z,75.43
2019-02-21T20:17:53.913Z,76.67
2019-02-21T20:20:25.375Z,75.73
2019-02-21T20:22:51.427Z,75.93
2019-02-21T20:25:17.483Z,76.63
2019-02-21T20:27:43.441Z,76.30
2019-02-21T20:30:12.434Z,76.53
2019-02-21T20:32:38.519Z,75.63
2019-02-21T20:35:04.801Z,76.33
2019-02-21T20:37:30.719Z,76.40
2019-02-21T20:39:56.786Z,75.97
2019-02-21T20:42:24.581Z,76.60
2019-02-21T20:44:50.629Z,75.60
2019-02-21T20:47:16.675Z,76.50
2019-02-21T20:49:42.596Z,76.20
2019-02-21T20:52:08.490Z,74.70
2019-02-21T20:54:34.518Z,74.40
2019-02-21T20:57:00.552Z,74.60
2019-02-21T20:59:26.510Z,71.80
2019-02-21T21:01:52.449Z,73.10
2019-02-21T21:04:18.323Z,74.90
2019-02-21T21:06:44.413Z,77.43
2019-02-21T21:09:10.811Z,76.53
2019-02-21T21:11:36.855Z,76.00
2019-02-21T21:14:02.868Z,75.63
2019-02-21T21:16:28.719Z,74.20
2019-02-21T21:18:54.555Z,73.57
2019-02-21T21:21:20.555Z,72.63
2019-02-21T21:23:49.260Z,72.93
2019-02-21T21:26:19.163Z,76.70
2019-02-21T21:28:45.019Z,73.83
2019-02-21T21:31:10.956Z,76.87
2019-02-21T21:33:36.813Z,77.73
2019-02-21T21:36:02.880Z,79.33
2019-02-21T21:38:30.469Z,82.47
2019-02-21T21:40:56.402Z,81.37
2019-02-21T21:43:23.214Z,81.23
2019-02-21T21:45:49.299Z,80.30
2019-02-21T21:48:15.235Z,80.27
2019-02-21T21:50:41.271Z,78.07
2019-02-21T21:53:07.270Z,78.97
2019-02-21T21:55:33.127Z,76.47
2019-02-21T21:57:59.086Z,78.80
2019-02-21T22:00:25.148Z,77.50
2019-02-21T22:02:51.200Z,74.20
2019-02-21T22:05:17.123Z,76.13
2019-02-21T22:07:43.200Z,71.23
2019-02-21T22:10:10.856Z,72.33
2019-02-21T22:12:36.720Z,73.97
2019-02-21T22:15:05.050Z,70.07
2019-02-21T22:17:30.904Z,71.63
2019-02-21T22:19:56.815Z,70.73
2019-02-21T22:22:22.664Z,70.90
2019-02-21T22:24:48.460Z,69.63
2019-02-21T22:27:14.446Z,70.97
2019-02-21T22:29:40.226Z,70.97
2019-02-21T22:32:06.203Z,68.50
2019-02-21T22:34:32.091Z,70.53
2019-02-21T22:36:57.902Z,70.47
2019-02-21T22:39:23.826Z,69.27
2019-02-21T22:41:50.188Z,68.97
2019-02-21T22:44:16.028Z,70.20
2019-02-21T22:46:42.061Z,65.93
2019-02-21T22:49:07.891Z,68.60
2019-02-21T22:51:33.750Z,70.03
2019-02-21T22:53:59.627Z,65.23
2019-02-21T22:56:25.603Z,69.30
2019-02-21T22:58:51.539Z,70.77
2019-02-21T23:01:24.291Z,72.00
2019-02-21T23:03:53.549Z,73.37
2019-02-21T23:06:32.523Z,72.70
2019-02-21T23:08:58.469Z,71.50
2019-02-21T23:11:24.533Z,71.83
2019-02-21T23:13:50.610Z,67.00
2019-02-21T23:16:16.557Z,66.20
2019-02-21T23:18:42.608Z,64.13
2019-02-21T23:21:08.711Z,68.27
2019-02-21T23:23:34.646Z,69.30
2019-02-21T23:26:00.682Z,66.60
2019-02-21T23:28:29.939Z,64.80
2019-02-21T23:30:55.761Z,67.30
2019-02-21T23:33:23.187Z,66.67
2019-02-21T23:35:49.085Z,64.27
2019-02-21T23:38:15.016Z,64.37
2019-02-21T23:40:41.056Z,64.33
2019-02-21T23:43:07.086Z,67.73
2019-02-21T23:45:33.124Z,67.37
2019-02-21T23:47:59.063Z,63.40
2019-02-21T23:50:25.146Z,63.23
2019-02-21T23:52:51.013Z,62.70
2019-02-21T23:55:16.912Z,64.30
2019-02-21T23:57:42.763Z,60.60
